sensor_id;sensor_type;location;lat;lon;timestamp;P1;durP1;ratioP1;P2;durP2;ratioP2
57643;SDS011;43474;46.510;6.686;2023-03-16T00:02:04;113.85;;;108.85;;
57643;SDS011;43474;46.510;6.686;2023-03-16T00:04:31;107.50;;;102.72;;
57643;SDS011;43474;46.510;6.686;2023-03-16T00:07:01;107.13;;;102.63;;
57643;SDS011;43474;46.510;6.686;2023-03-16T00:09:27;106.75;;;102.05;;
57643;SDS011;43474;46.510;6.686;2023-03-16T00:12:01;102.25;;;97.88;;
57643;SDS011;43474;46.510;6.686;2023-03-16T00:14:27;106.15;;;101.50;;
57643;SDS011;43474;46.510;6.686;2023-03-16T00:16:53;109.47;;;104.70;;
57643;SDS011;43474;46.510;6.686;2023-03-16T00:19:19;104.53;;;100.03;;
57643;SDS011;43474;46.510;6.686;2023-03-16T00:21:47;104.47;;;99.97;;
57643;SDS011;43474;46.510;6.686;2023-03-16T00:24:16;105.63;;;100.88;;
57643;SDS011;43474;46.510;6.686;2023-03-16T00:26:46;106.20;;;101.20;;
57643;SDS011;43474;46.510;6.686;2023-03-16T00:29:12;101.70;;;97.25;;
57643;SDS011;43474;46.510;6.686;2023-03-16T00:31:38;100.75;;;96.45;;
57643;SDS011;43474;46.510;6.686;2023-03-16T00:34:11;102.88;;;98.53;;
57643;SDS011;43474;46.510;6.686;2023-03-16T00:36:36;104.45;;;100.00;;
57643;SDS011;43474;46.510;6.686;2023-03-16T00:39:06;102.88;;;98.18;;
57643;SDS011;43474;46.510;6.686;2023-03-16T00:41:31;100.93;;;96.55;;
57643;SDS011;43474;46.510;6.686;2023-03-16T00:44:05;105.18;;;100.65;;
57643;SDS011;43474;46.510;6.686;2023-03-16T00:46:30;104.68;;;99.70;;
57643;SDS011;43474;46.510;6.686;2023-03-16T00:48:57;102.80;;;98.30;;
57643;SDS011;43474;46.510;6.686;2023-03-16T00:51:22;102.05;;;97.38;;
57643;SDS011;43474;46.510;6.686;2023-03-16T00:53:48;102.18;;;97.47;;
57643;SDS011;43474;46.510;6.686;2023-03-16T00:56:14;102.28;;;97.75;;
57643;SDS011;43474;46.510;6.686;2023-03-16T00:58:41;103.70;;;99.22;;
57643;SDS011;43474;46.510;6.686;2023-03-16T01:01:08;103.82;;;99.32;;
57643;SDS011;43474;46.510;6.686;2023-03-16T01:03:39;103.40;;;99.00;;
57643;SDS011;43474;46.510;6.686;2023-03-16T01:06:09;106.88;;;102.18;;
57643;SDS011;43474;46.510;6.686;2023-03-16T01:08:41;110.63;;;105.78;;
57643;SDS011;43474;46.510;6.686;2023-03-16T01:11:09;106.68;;;102.10;;
57643;SDS011;43474;46.510;6.686;2023-03-16T01:13:40;110.95;;;106.20;;
57643;SDS011;43474;46.510;6.686;2023-03-16T01:16:06;110.72;;;105.88;;
57643;SDS011;43474;46.510;6.686;2023-03-16T01:18:33;109.82;;;105.13;;
57643;SDS011;43474;46.510;6.686;2023-03-16T01:20:59;114.22;;;109.25;;
57643;SDS011;43474;46.510;6.686;2023-03-16T01:23:26;110.55;;;105.90;;
57643;SDS011;43474;46.510;6.686;2023-03-16T01:25:54;112.47;;;107.38;;
57643;SDS011;43474;46.510;6.686;2023-03-16T01:28:20;111.20;;;106.43;;
57643;SDS011;43474;46.510;6.686;2023-03-16T01:30:50;108.65;;;104.05;;
57643;SDS011;43474;46.510;6.686;2023-03-16T01:35:58;116.82;;;111.93;;
57643;SDS011;43474;46.510;6.686;2023-03-16T01:38:25;112.95;;;108.15;;
57643;SDS011;43474;46.510;6.686;2023-03-16T01:40:52;108.50;;;103.90;;
57643;SDS011;43474;46.510;6.686;2023-03-16T01:43:20;107.25;;;102.72;;
57643;SDS011;43474;46.510;6.686;2023-03-16T01:48:33;104.30;;;99.70;;
57643;SDS011;43474;46.510;6.686;2023-03-16T01:51:10;104.32;;;99.72;;
57643;SDS011;43474;46.510;6.686;2023-03-16T01:54:00;106.75;;;102.20;;
57643;SDS011;43474;46.510;6.686;2023-03-16T01:56:32;102.43;;;98.13;;
57643;SDS011;43474;46.510;6.686;2023-03-16T01:59:04;103.93;;;99.47;;
57643;SDS011;43474;46.510;6.686;2023-03-16T02:01:35;105.93;;;101.43;;
57643;SDS011;43474;46.510;6.686;2023-03-16T02:04:08;101.95;;;97.65;;
57643;SDS011;43474;46.510;6.686;2023-03-16T02:06:43;101.88;;;97.57;;
57643;SDS011;43474;46.510;6.686;2023-03-16T02:09:10;100.32;;;96.03;;
57643;SDS011;43474;46.510;6.686;2023-03-16T02:11:36;97.95;;;93.85;;
57643;SDS011;43474;46.510;6.686;2023-03-16T02:14:03;102.97;;;98.47;;
57643;SDS011;43474;46.510;6.686;2023-03-16T02:16:33;101.80;;;97.50;;
57643;SDS011;43474;46.510;6.686;2023-03-16T02:18:59;97.65;;;93.55;;
57643;SDS011;43474;46.510;6.686;2023-03-16T02:21:36;97.72;;;93.53;;
57643;SDS011;43474;46.510;6.686;2023-03-16T02:24:23;102.35;;;98.03;;
57643;SDS011;43474;46.510;6.686;2023-03-16T02:26:52;101.60;;;97.30;;
57643;SDS011;43474;46.510;6.686;2023-03-16T02:29:28;100.72;;;96.43;;
57643;SDS011;43474;46.510;6.686;2023-03-16T02:32:15;98.93;;;94.72;;
57643;SDS011;43474;46.510;6.686;2023-03-16T02:34:42;99.38;;;95.18;;
57643;SDS011;43474;46.510;6.686;2023-03-16T02:37:07;101.55;;;97.22;;
57643;SDS011;43474;46.510;6.686;2023-03-16T02:39:34;98.28;;;94.07;;
57643;SDS011;43474;46.510;6.686;2023-03-16T02:42:00;105.10;;;100.45;;
57643;SDS011;43474;46.510;6.686;2023-03-16T02:44:28;100.57;;;96.28;;
57643;SDS011;43474;46.510;6.686;2023-03-16T02:47:02;101.13;;;96.72;;
57643;SDS011;43474;46.510;6.686;2023-03-16T02:49:33;104.22;;;99.78;;
57643;SDS011;43474;46.510;6.686;2023-03-16T02:52:03;102.78;;;98.38;;
57643;SDS011;43474;46.510;6.686;2023-03-16T02:54:29;105.68;;;100.60;;
57643;SDS011;43474;46.510;6.686;2023-03-16T02:56:55;100.47;;;96.20;;
57643;SDS011;43474;46.510;6.686;2023-03-16T02:59:20;100.93;;;96.60;;
57643;SDS011;43474;46.510;6.686;2023-03-16T03:01:46;99.32;;;95.13;;
57643;SDS011;43474;46.510;6.686;2023-03-16T03:04:12;102.47;;;97.97;;
57643;SDS011;43474;46.510;6.686;2023-03-16T03:06:37;101.05;;;96.70;;
57643;SDS011;43474;46.510;6.686;2023-03-16T03:09:03;100.88;;;96.68;;
57643;SDS011;43474;46.510;6.686;2023-03-16T03:11:29;100.20;;;95.95;;
57643;SDS011;43474;46.510;6.686;2023-03-16T03:13:55;97.93;;;93.75;;
57643;SDS011;43474;46.510;6.686;2023-03-16T03:16:21;100.60;;;96.30;;
57643;SDS011;43474;46.510;6.686;2023-03-16T03:18:47;99.65;;;95.45;;
57643;SDS011;43474;46.510;6.686;2023-03-16T03:21:13;98.80;;;94.50;;
57643;SDS011;43474;46.510;6.686;2023-03-16T03:23:39;100.03;;;95.82;;
57643;SDS011;43474;46.510;6.686;2023-03-16T03:26:05;100.20;;;96.00;;
57643;SDS011;43474;46.510;6.686;2023-03-16T03:28:31;101.25;;;96.88;;
57643;SDS011;43474;46.510;6.686;2023-03-16T03:30:58;100.82;;;96.43;;
57643;SDS011;43474;46.510;6.686;2023-03-16T03:33:25;102.13;;;97.72;;
57643;SDS011;43474;46.510;6.686;2023-03-16T03:35:55;100.55;;;96.20;;
57643;SDS011;43474;46.510;6.686;2023-03-16T03:38:23;104.30;;;99.85;;
57643;SDS011;43474;46.510;6.686;2023-03-16T03:40:52;102.35;;;98.03;;
57643;SDS011;43474;46.510;6.686;2023-03-16T03:43:19;103.05;;;98.65;;
57643;SDS011;43474;46.510;6.686;2023-03-16T03:45:45;101.57;;;97.28;;
57643;SDS011;43474;46.510;6.686;2023-03-16T03:48:11;102.78;;;98.20;;
57643;SDS011;43474;46.510;6.686;2023-03-16T03:50:36;99.05;;;94.80;;
57643;SDS011;43474;46.510;6.686;2023-03-16T03:53:03;105.20;;;100.53;;
57643;SDS011;43474;46.510;6.686;2023-03-16T03:55:29;101.50;;;97.10;;
57643;SDS011;43474;46.510;6.686;2023-03-16T03:57:58;105.00;;;100.45;;
57643;SDS011;43474;46.510;6.686;2023-03-16T04:00:23;104.63;;;99.85;;
57643;SDS011;43474;46.510;6.686;2023-03-16T04:02:49;104.85;;;100.45;;
57643;SDS011;43474;46.510;6.686;2023-03-16T04:05:15;103.22;;;98.72;;
57643;SDS011;43474;46.510;6.686;2023-03-16T04:07:41;104.43;;;100.03;;
57643;SDS011;43474;46.510;6.686;2023-03-16T04:10:06;104.75;;;100.25;;
57643;SDS011;43474;46.510;6.686;2023-03-16T04:12:33;109.30;;;104.40;;
57643;SDS011;43474;46.510;6.686;2023-03-16T04:14:58;111.38;;;106.50;;
57643;SDS011;43474;46.510;6.686;2023-03-16T04:17:24;110.20;;;104.95;;
57643;SDS011;43474;46.510;6.686;2023-03-16T04:19:49;110.80;;;105.78;;
57643;SDS011;43474;46.510;6.686;2023-03-16T04:22:16;108.32;;;103.53;;
57643;SDS011;43474;46.510;6.686;2023-03-16T04:24:42;108.72;;;104.05;;
57643;SDS011;43474;46.510;6.686;2023-03-16T04:27:08;107.78;;;103.13;;
57643;SDS011;43474;46.510;6.686;2023-03-16T04:29:36;108.82;;;104.13;;
57643;SDS011;43474;46.510;6.686;2023-03-16T04:32:04;110.65;;;105.88;;
57643;SDS011;43474;46.510;6.686;2023-03-16T04:34:30;111.00;;;106.20;;
57643;SDS011;43474;46.510;6.686;2023-03-16T04:36:56;113.15;;;108.30;;
57643;SDS011;43474;46.510;6.686;2023-03-16T04:39:21;112.55;;;107.50;;
57643;SDS011;43474;46.510;6.686;2023-03-16T04:41:47;111.57;;;106.68;;
57643;SDS011;43474;46.510;6.686;2023-03-16T04:44:13;112.93;;;108.07;;
57643;SDS011;43474;46.510;6.686;2023-03-16T04:46:39;108.65;;;104.05;;
57643;SDS011;43474;46.510;6.686;2023-03-16T04:49:05;109.88;;;104.78;;
57643;SDS011;43474;46.510;6.686;2023-03-16T04:51:34;111.03;;;106.20;;
57643;SDS011;43474;46.510;6.686;2023-03-16T04:54:02;112.22;;;107.38;;
57643;SDS011;43474;46.510;6.686;2023-03-16T04:56:28;111.65;;;106.95;;
57643;SDS011;43474;46.510;6.686;2023-03-16T04:58:54;110.97;;;106.18;;
57643;SDS011;43474;46.510;6.686;2023-03-16T05:01:21;113.15;;;108.35;;
57643;SDS011;43474;46.510;6.686;2023-03-16T05:03:47;113.00;;;108.20;;
57643;SDS011;43474;46.510;6.686;2023-03-16T05:06:14;114.13;;;109.22;;
57643;SDS011;43474;46.510;6.686;2023-03-16T05:08:39;113.75;;;108.95;;
57643;SDS011;43474;46.510;6.686;2023-03-16T05:11:05;115.93;;;110.72;;
57643;SDS011;43474;46.510;6.686;2023-03-16T05:13:31;117.82;;;112.82;;
57643;SDS011;43474;46.510;6.686;2023-03-16T05:15:57;117.68;;;112.35;;
57643;SDS011;43474;46.510;6.686;2023-03-16T05:18:22;118.78;;;113.78;;
57643;SDS011;43474;46.510;6.686;2023-03-16T05:20:49;120.72;;;115.53;;
57643;SDS011;43474;46.510;6.686;2023-03-16T05:23:16;124.15;;;118.80;;
57643;SDS011;43474;46.510;6.686;2023-03-16T05:25:42;125.15;;;119.85;;
57643;SDS011;43474;46.510;6.686;2023-03-16T05:28:07;126.32;;;120.93;;
57643;SDS011;43474;46.510;6.686;2023-03-16T05:30:33;126.22;;;120.72;;
57643;SDS011;43474;46.510;6.686;2023-03-16T05:32:58;127.10;;;121.60;;
57643;SDS011;43474;46.510;6.686;2023-03-16T05:35:24;126.35;;;120.65;;
57643;SDS011;43474;46.510;6.686;2023-03-16T05:37:49;129.48;;;123.88;;
57643;SDS011;43474;46.510;6.686;2023-03-16T05:40:15;130.70;;;125.10;;
57643;SDS011;43474;46.510;6.686;2023-03-16T05:42:45;131.88;;;126.18;;
57643;SDS011;43474;46.510;6.686;2023-03-16T05:45:12;131.68;;;126.00;;
57643;SDS011;43474;46.510;6.686;2023-03-16T05:47:39;132.23;;;126.32;;
57643;SDS011;43474;46.510;6.686;2023-03-16T05:50:05;131.50;;;125.70;;
57643;SDS011;43474;46.510;6.686;2023-03-16T05:52:35;135.07;;;129.13;;
57643;SDS011;43474;46.510;6.686;2023-03-16T05:55:03;135.27;;;129.40;;
57643;SDS011;43474;46.510;6.686;2023-03-16T05:57:30;134.80;;;129.00;;
57643;SDS011;43474;46.510;6.686;2023-03-16T05:59:56;137.30;;;131.25;;
57643;SDS011;43474;46.510;6.686;2023-03-16T06:02:22;136.00;;;130.10;;
57643;SDS011;43474;46.510;6.686;2023-03-16T06:04:48;135.75;;;129.75;;
57643;SDS011;43474;46.510;6.686;2023-03-16T06:07:13;138.20;;;132.20;;
57643;SDS011;43474;46.510;6.686;2023-03-16T06:09:39;136.55;;;130.73;;
57643;SDS011;43474;46.510;6.686;2023-03-16T06:12:04;135.20;;;129.30;;
57643;SDS011;43474;46.510;6.686;2023-03-16T06:14:30;132.75;;;127.03;;
57643;SDS011;43474;46.510;6.686;2023-03-16T06:16:56;131.02;;;125.18;;
57643;SDS011;43474;46.510;6.686;2023-03-16T06:19:21;128.48;;;122.82;;
57643;SDS011;43474;46.510;6.686;2023-03-16T06:21:47;120.65;;;115.35;;
57643;SDS011;43474;46.510;6.686;2023-03-16T06:24:12;120.68;;;115.47;;
57643;SDS011;43474;46.510;6.686;2023-03-16T06:26:38;117.25;;;111.97;;
57643;SDS011;43474;46.510;6.686;2023-03-16T06:29:04;112.47;;;107.60;;
57643;SDS011;43474;46.510;6.686;2023-03-16T06:31:30;110.68;;;105.93;;
57643;SDS011;43474;46.510;6.686;2023-03-16T06:33:55;112.22;;;107.43;;
57643;SDS011;43474;46.510;6.686;2023-03-16T06:36:21;107.30;;;102.63;;
57643;SDS011;43474;46.510;6.686;2023-03-16T06:38:47;103.78;;;99.22;;
57643;SDS011;43474;46.510;6.686;2023-03-16T06:41:12;106.75;;;102.13;;
57643;SDS011;43474;46.510;6.686;2023-03-16T06:43:38;99.53;;;95.22;;
57643;SDS011;43474;46.510;6.686;2023-03-16T06:46:04;97.35;;;93.25;;
57643;SDS011;43474;46.510;6.686;2023-03-16T06:48:30;93.72;;;89.72;;
57643;SDS011;43474;46.510;6.686;2023-03-16T06:50:55;93.10;;;89.10;;
57643;SDS011;43474;46.510;6.686;2023-03-16T06:53:21;94.28;;;90.18;;
57643;SDS011;43474;46.510;6.686;2023-03-16T06:55:47;92.53;;;88.53;;
57643;SDS011;43474;46.510;6.686;2023-03-16T06:58:13;89.22;;;85.25;;
57643;SDS011;43474;46.510;6.686;2023-03-16T07:00:38;86.53;;;82.82;;
57643;SDS011;43474;46.510;6.686;2023-03-16T07:03:04;86.20;;;82.50;;
57643;SDS011;43474;46.510;6.686;2023-03-16T07:05:29;79.97;;;76.57;;
57643;SDS011;43474;46.510;6.686;2023-03-16T07:07:56;84.85;;;81.25;;
57643;SDS011;43474;46.510;6.686;2023-03-16T07:10:21;84.25;;;80.75;;
57643;SDS011;43474;46.510;6.686;2023-03-16T07:12:47;78.60;;;75.28;;
57643;SDS011;43474;46.510;6.686;2023-03-16T07:15:14;76.53;;;73.18;;
57643;SDS011;43474;46.510;6.686;2023-03-16T07:17:41;76.28;;;72.93;;
57643;SDS011;43474;46.510;6.686;2023-03-16T07:20:07;79.88;;;76.43;;
57643;SDS011;43474;46.510;6.686;2023-03-16T07:22:38;74.95;;;71.55;;
57643;SDS011;43474;46.510;6.686;2023-03-16T07:25:04;69.80;;;66.90;;
57643;SDS011;43474;46.510;6.686;2023-03-16T07:27:31;74.78;;;71.60;;
57643;SDS011;43474;46.510;6.686;2023-03-16T07:29:58;75.07;;;71.88;;
57643;SDS011;43474;46.510;6.686;2023-03-16T07:32:24;68.65;;;65.78;;
57643;SDS011;43474;46.510;6.686;2023-03-16T07:34:50;66.05;;;63.22;;
57643;SDS011;43474;46.510;6.686;2023-03-16T07:37:16;87.18;;;83.38;;
57643;SDS011;43474;46.510;6.686;2023-03-16T07:39:41;66.45;;;63.50;;
57643;SDS011;43474;46.510;6.686;2023-03-16T07:42:08;76.70;;;73.45;;
57643;SDS011;43474;46.510;6.686;2023-03-16T07:44:33;73.65;;;70.55;;
57643;SDS011;43474;46.510;6.686;2023-03-16T07:46:59;74.95;;;71.53;;
57643;SDS011;43474;46.510;6.686;2023-03-16T07:49:26;72.68;;;69.57;;
57643;SDS011;43474;46.510;6.686;2023-03-16T07:51:52;63.90;;;61.28;;
57643;SDS011;43474;46.510;6.686;2023-03-16T07:54:17;70.35;;;67.35;;
57643;SDS011;43474;46.510;6.686;2023-03-16T07:56:43;49.20;;;47.10;;
57643;SDS011;43474;46.510;6.686;2023-03-16T07:59:09;63.03;;;60.30;;
57643;SDS011;43474;46.510;6.686;2023-03-16T08:01:36;67.57;;;64.68;;
57643;SDS011;43474;46.510;6.686;2023-03-16T08:04:01;59.10;;;56.60;;
57643;SDS011;43474;46.510;6.686;2023-03-16T08:06:28;50.00;;;47.90;;
57643;SDS011;43474;46.510;6.686;2023-03-16T08:08:53;52.92;;;50.72;;
57643;SDS011;43474;46.510;6.686;2023-03-16T08:11:19;51.67;;;49.45;;
57643;SDS011;43474;46.510;6.686;2023-03-16T08:13:51;52.05;;;49.83;;
57643;SDS011;43474;46.510;6.686;2023-03-16T08:16:21;44.53;;;42.67;;
57643;SDS011;43474;46.510;6.686;2023-03-16T08:18:54;41.08;;;39.22;;
57643;SDS011;43474;46.510;6.686;2023-03-16T08:21:21;39.95;;;38.15;;
57643;SDS011;43474;46.510;6.686;2023-03-16T08:23:48;30.35;;;29.08;;
57643;SDS011;43474;46.510;6.686;2023-03-16T08:26:15;35.90;;;34.33;;
57643;SDS011;43474;46.510;6.686;2023-03-16T08:28:44;37.72;;;36.17;;
57643;SDS011;43474;46.510;6.686;2023-03-16T08:31:11;29.67;;;28.17;;
57643;SDS011;43474;46.510;6.686;2023-03-16T08:33:42;23.77;;;22.73;;
57643;SDS011;43474;46.510;6.686;2023-03-16T08:36:09;32.72;;;31.42;;
57643;SDS011;43474;46.510;6.686;2023-03-16T08:38:38;28.45;;;27.13;;
57643;SDS011;43474;46.510;6.686;2023-03-16T08:41:07;34.13;;;32.63;;
57643;SDS011;43474;46.510;6.686;2023-03-16T08:43:34;32.65;;;31.23;;
57643;SDS011;43474;46.510;6.686;2023-03-16T08:46:01;25.52;;;24.17;;
57643;SDS011;43474;46.510;6.686;2023-03-16T08:48:28;28.45;;;27.23;;
57643;SDS011;43474;46.510;6.686;2023-03-16T08:50:54;26.10;;;25.00;;
57643;SDS011;43474;46.510;6.686;2023-03-16T08:53:20;32.35;;;30.90;;
57643;SDS011;43474;46.510;6.686;2023-03-16T08:55:46;20.38;;;19.52;;
57643;SDS011;43474;46.510;6.686;2023-03-16T08:58:12;26.95;;;25.75;;
57643;SDS011;43474;46.510;6.686;2023-03-16T09:00:38;32.92;;;31.52;;
57643;SDS011;43474;46.510;6.686;2023-03-16T09:03:05;28.40;;;27.20;;
57643;SDS011;43474;46.510;6.686;2023-03-16T09:05:30;30.08;;;28.83;;
57643;SDS011;43474;46.510;6.686;2023-03-16T09:07:57;29.63;;;28.42;;
57643;SDS011;43474;46.510;6.686;2023-03-16T09:10:24;30.77;;;29.48;;
57643;SDS011;43474;46.510;6.686;2023-03-16T09:12:51;51.15;;;48.85;;
57643;SDS011;43474;46.510;6.686;2023-03-16T09:15:18;38.65;;;36.90;;
57643;SDS011;43474;46.510;6.686;2023-03-16T09:17:45;40.53;;;38.72;;
57643;SDS011;43474;46.510;6.686;2023-03-16T09:20:12;42.35;;;40.58;;
57643;SDS011;43474;46.510;6.686;2023-03-16T09:22:40;31.45;;;30.10;;
57643;SDS011;43474;46.510;6.686;2023-03-16T09:25:06;24.40;;;23.20;;
57643;SDS011;43474;46.510;6.686;2023-03-16T09:27:33;35.45;;;33.95;;
57643;SDS011;43474;46.510;6.686;2023-03-16T09:30:01;39.97;;;38.25;;
57643;SDS011;43474;46.510;6.686;2023-03-16T09:32:29;33.85;;;32.17;;
57643;SDS011;43474;46.510;6.686;2023-03-16T09:34:55;31.15;;;29.75;;
57643;SDS011;43474;46.510;6.686;2023-03-16T09:37:21;39.67;;;37.88;;
57643;SDS011;43474;46.510;6.686;2023-03-16T09:39:47;27.50;;;26.13;;
57643;SDS011;43474;46.510;6.686;2023-03-16T09:45:08;32.03;;;30.52;;
57643;SDS011;43474;46.510;6.686;2023-03-16T09:47:48;35.22;;;33.75;;
57643;SDS011;43474;46.510;6.686;2023-03-16T09:50:19;26.90;;;25.63;;
57643;SDS011;43474;46.510;6.686;2023-03-16T09:52:54;32.17;;;30.77;;
57643;SDS011;43474;46.510;6.686;2023-03-16T09:55:29;35.17;;;33.60;;
57643;SDS011;43474;46.510;6.686;2023-03-16T09:57:58;31.77;;;30.27;;
57643;SDS011;43474;46.510;6.686;2023-03-16T10:00:26;35.47;;;34.00;;
57643;SDS011;43474;46.510;6.686;2023-03-16T10:05:59;42.05;;;40.22;;
57643;SDS011;43474;46.510;6.686;2023-03-16T10:08:36;41.78;;;39.97;;
57643;SDS011;43474;46.510;6.686;2023-03-16T10:14:00;36.30;;;34.50;;
57643;SDS011;43474;46.510;6.686;2023-03-16T10:16:46;37.83;;;36.22;;
57643;SDS011;43474;46.510;6.686;2023-03-16T10:27:52;34.53;;;32.92;;
57643;SDS011;43474;46.510;6.686;2023-03-16T10:30:28;38.63;;;36.83;;
57643;SDS011;43474;46.510;6.686;2023-03-16T10:33:00;34.55;;;32.95;;
57643;SDS011;43474;46.510;6.686;2023-03-16T10:38:39;35.83;;;34.22;;
57643;SDS011;43474;46.510;6.686;2023-03-16T10:43:43;37.72;;;35.90;;
57643;SDS011;43474;46.510;6.686;2023-03-16T10:46:10;36.22;;;34.53;;
57643;SDS011;43474;46.510;6.686;2023-03-16T10:48:36;41.33;;;39.42;;
57643;SDS011;43474;46.510;6.686;2023-03-16T10:51:07;41.55;;;39.65;;
57643;SDS011;43474;46.510;6.686;2023-03-16T10:53:40;34.33;;;32.72;;
57643;SDS011;43474;46.510;6.686;2023-03-16T10:56:19;27.20;;;25.90;;
57643;SDS011;43474;46.510;6.686;2023-03-16T10:58:47;32.00;;;30.50;;
57643;SDS011;43474;46.510;6.686;2023-03-16T11:03:58;32.42;;;30.88;;
57643;SDS011;43474;46.510;6.686;2023-03-16T11:06:29;27.92;;;26.63;;
57643;SDS011;43474;46.510;6.686;2023-03-16T11:09:05;21.02;;;20.02;;
57643;SDS011;43474;46.510;6.686;2023-03-16T11:11:36;25.38;;;24.13;;
57643;SDS011;43474;46.510;6.686;2023-03-16T11:14:03;37.63;;;36.03;;
57643;SDS011;43474;46.510;6.686;2023-03-16T11:16:38;26.90;;;25.70;;
57643;SDS011;43474;46.510;6.686;2023-03-16T11:27:25;22.60;;;21.60;;
57643;SDS011;43474;46.510;6.686;2023-03-16T11:30:41;12.80;;;12.20;;
57643;SDS011;43474;46.510;6.686;2023-03-16T11:32:49;15.52;;;14.65;;
57643;SDS011;43474;46.510;6.686;2023-03-16T11:35:18;18.75;;;17.95;;
57643;SDS011;43474;46.510;6.686;2023-03-16T11:40:55;23.35;;;22.30;;
57643;SDS011;43474;46.510;6.686;2023-03-16T11:43:43;26.67;;;25.27;;
57643;SDS011;43474;46.510;6.686;2023-03-16T11:46:21;19.55;;;18.65;;
57643;SDS011;43474;46.510;6.686;2023-03-16T11:51:47;14.43;;;13.63;;
57643;SDS011;43474;46.510;6.686;2023-03-16T12:02:31;4.97;;;4.68;;
57643;SDS011;43474;46.510;6.686;2023-03-16T12:15:59;4.88;;;4.40;;
57643;SDS011;43474;46.510;6.686;2023-03-16T12:18:42;8.40;;;8.00;;
57643;SDS011;43474;46.510;6.686;2023-03-16T12:21:14;10.98;;;10.48;;
57643;SDS011;43474;46.510;6.686;2023-03-16T12:23:52;8.57;;;8.02;;
57643;SDS011;43474;46.510;6.686;2023-03-16T12:26:20;5.75;;;5.43;;
57643;SDS011;43474;46.510;6.686;2023-03-16T12:28:50;5.22;;;4.93;;
57643;SDS011;43474;46.510;6.686;2023-03-16T12:31:22;6.90;;;6.47;;
57643;SDS011;43474;46.510;6.686;2023-03-16T12:45:02;5.82;;;5.43;;
57643;SDS011;43474;46.510;6.686;2023-03-16T12:47:56;7.68;;;7.18;;
57643;SDS011;43474;46.510;6.686;2023-03-16T12:50:30;8.18;;;7.57;;
57643;SDS011;43474;46.510;6.686;2023-03-16T12:52:57;3.97;;;3.78;;
57643;SDS011;43474;46.510;6.686;2023-03-16T12:55:38;3.72;;;3.53;;
57643;SDS011;43474;46.510;6.686;2023-03-16T12:58:09;3.90;;;3.63;;
57643;SDS011;43474;46.510;6.686;2023-03-16T13:00:37;3.90;;;3.60;;
57643;SDS011;43474;46.510;6.686;2023-03-16T13:03:09;3.67;;;3.53;;
57643;SDS011;43474;46.510;6.686;2023-03-16T13:05:49;6.15;;;5.85;;
57643;SDS011;43474;46.510;6.686;2023-03-16T13:08:18;3.10;;;2.90;;
57643;SDS011;43474;46.510;6.686;2023-03-16T13:11:02;2.72;;;2.63;;
57643;SDS011;43474;46.510;6.686;2023-03-16T13:13:31;2.70;;;2.60;;
57643;SDS011;43474;46.510;6.686;2023-03-16T13:16:02;4.40;;;4.10;;
57643;SDS011;43474;46.510;6.686;2023-03-16T13:18:35;4.03;;;3.72;;
57643;SDS011;43474;46.510;6.686;2023-03-16T13:21:19;3.70;;;3.20;;
57643;SDS011;43474;46.510;6.686;2023-03-16T13:23:53;3.80;;;3.40;;
57643;SDS011;43474;46.510;6.686;2023-03-16T13:26:35;3.30;;;3.10;;
57643;SDS011;43474;46.510;6.686;2023-03-16T13:29:09;4.63;;;4.20;;
57643;SDS011;43474;46.510;6.686;2023-03-16T13:31:40;4.57;;;4.18;;
57643;SDS011;43474;46.510;6.686;2023-03-16T13:34:06;3.78;;;3.05;;
57643;SDS011;43474;46.510;6.686;2023-03-16T13:36:38;3.80;;;3.60;;
57643;SDS011;43474;46.510;6.686;2023-03-16T13:39:16;3.88;;;3.35;;
57643;SDS011;43474;46.510;6.686;2023-03-16T13:41:57;5.32;;;5.03;;
57643;SDS011;43474;46.510;6.686;2023-03-16T13:44:24;4.60;;;4.30;;
57643;SDS011;43474;46.510;6.686;2023-03-16T13:46:50;4.60;;;4.22;;
57643;SDS011;43474;46.510;6.686;2023-03-16T13:49:16;5.60;;;5.10;;
57643;SDS011;43474;46.510;6.686;2023-03-16T13:51:43;5.55;;;4.05;;
57643;SDS011;43474;46.510;6.686;2023-03-16T13:54:24;4.97;;;4.57;;
57643;SDS011;43474;46.510;6.686;2023-03-16T13:56:54;6.60;;;4.82;;
57643;SDS011;43474;46.510;6.686;2023-03-16T13:59:24;6.43;;;4.82;;
57643;SDS011;43474;46.510;6.686;2023-03-16T14:01:54;3.88;;;3.65;;
57643;SDS011;43474;46.510;6.686;2023-03-16T14:04:24;7.20;;;6.53;;
57643;SDS011;43474;46.510;6.686;2023-03-16T14:06:55;7.18;;;6.68;;
57643;SDS011;43474;46.510;6.686;2023-03-16T14:09:33;6.68;;;6.28;;
57643;SDS011;43474;46.510;6.686;2023-03-16T14:11:59;7.00;;;6.60;;
57643;SDS011;43474;46.510;6.686;2023-03-16T14:14:29;9.90;;;9.35;;
57643;SDS011;43474;46.510;6.686;2023-03-16T14:17:08;7.40;;;7.00;;
57643;SDS011;43474;46.510;6.686;2023-03-16T14:19:47;5.18;;;4.80;;
57643;SDS011;43474;46.510;6.686;2023-03-16T14:22:19;5.60;;;5.10;;
57643;SDS011;43474;46.510;6.686;2023-03-16T14:24:52;4.57;;;4.28;;
57643;SDS011;43474;46.510;6.686;2023-03-16T14:30:20;4.78;;;4.18;;
57643;SDS011;43474;46.510;6.686;2023-03-16T14:35:25;4.80;;;4.40;;
57643;SDS011;43474;46.510;6.686;2023-03-16T14:37:52;4.20;;;3.80;;
57643;SDS011;43474;46.510;6.686;2023-03-16T14:40:25;3.80;;;3.50;;
57643;SDS011;43474;46.510;6.686;2023-03-16T14:42:53;3.72;;;3.42;;
57643;SDS011;43474;46.510;6.686;2023-03-16T14:45:21;3.33;;;3.13;;
57643;SDS011;43474;46.510;6.686;2023-03-16T14:47:50;3.95;;;3.65;;
57643;SDS011;43474;46.510;6.686;2023-03-16T14:50:22;4.13;;;3.92;;
57643;SDS011;43474;46.510;6.686;2023-03-16T14:52:52;4.38;;;4.13;;
57643;SDS011;43474;46.510;6.686;2023-03-16T14:55:20;5.07;;;4.68;;
57643;SDS011;43474;46.510;6.686;2023-03-16T14:57:47;6.50;;;6.20;;
57643;SDS011;43474;46.510;6.686;2023-03-16T15:00:16;3.40;;;3.20;;
57643;SDS011;43474;46.510;6.686;2023-03-16T15:02:43;3.22;;;3.03;;
57643;SDS011;43474;46.510;6.686;2023-03-16T15:05:19;6.25;;;2.92;;
57643;SDS011;43474;46.510;6.686;2023-03-16T15:07:48;3.00;;;2.80;;
57643;SDS011;43474;46.510;6.686;2023-03-16T15:10:23;2.45;;;2.35;;
57643;SDS011;43474;46.510;6.686;2023-03-16T15:12:51;2.90;;;2.70;;
57643;SDS011;43474;46.510;6.686;2023-03-16T15:15:28;4.53;;;3.03;;
57643;SDS011;43474;46.510;6.686;2023-03-16T15:17:54;3.72;;;2.45;;
57643;SDS011;43474;46.510;6.686;2023-03-16T15:20:21;2.63;;;2.42;;
57643;SDS011;43474;46.510;6.686;2023-03-16T15:22:53;2.33;;;2.22;;
57643;SDS011;43474;46.510;6.686;2023-03-16T15:27:53;2.47;;;2.38;;
57643;SDS011;43474;46.510;6.686;2023-03-16T15:30:23;4.13;;;2.38;;
57643;SDS011;43474;46.510;6.686;2023-03-16T15:35:17;2.75;;;2.55;;
57643;SDS011;43474;46.510;6.686;2023-03-16T15:37:43;3.45;;;3.25;;
57643;SDS011;43474;46.510;6.686;2023-03-16T15:40:14;3.92;;;2.35;;
57643;SDS011;43474;46.510;6.686;2023-03-16T15:42:41;3.72;;;2.80;;
57643;SDS011;43474;46.510;6.686;2023-03-16T15:45:11;3.75;;;2.30;;
57643;SDS011;43474;46.510;6.686;2023-03-16T15:47:38;2.97;;;2.67;;
57643;SDS011;43474;46.510;6.686;2023-03-16T15:50:05;2.40;;;2.30;;
57643;SDS011;43474;46.510;6.686;2023-03-16T15:52:33;2.83;;;2.60;;
57643;SDS011;43474;46.510;6.686;2023-03-16T15:55:01;3.10;;;2.20;;